sensor_id;sensor_type;location;lat;lon;timestamp;temperature;humidity
54409;DHT22;40315;48.620;9.828;2024-02-16T00:02:16;7.60;99.90
54409;DHT22;40315;48.620;9.828;2024-02-16T00:04:44;7.50;99.90
54409;DHT22;40315;48.620;9.828;2024-02-16T00:07:13;7.50;99.90
54409;DHT22;40315;48.620;9.828;2024-02-16T00:09:42;7.50;99.90
54409;DHT22;40315;48.620;9.828;2024-02-16T00:12:09;7.50;99.90
54409;DHT22;40315;48.620;9.828;2024-02-16T00:14:37;7.50;99.90
54409;DHT22;40315;48.620;9.828;2024-02-16T00:17:05;7.50;99.90
54409;DHT22;40315;48.620;9.828;2024-02-16T00:19:32;7.50;99.90
54409;DHT22;40315;48.620;9.828;2024-02-16T00:22:01;7.50;99.90
54409;DHT22;40315;48.620;9.828;2024-02-16T00:24:29;7.50;99.90
54409;DHT22;40315;48.620;9.828;2024-02-16T00:26:58;7.50;99.90
54409;DHT22;40315;48.620;9.828;2024-02-16T00:29:25;7.40;99.90
54409;DHT22;40315;48.620;9.828;2024-02-16T00:31:55;7.40;99.90
54409;DHT22;40315;48.620;9.828;2024-02-16T00:34:24;7.40;99.90
54409;DHT22;40315;48.620;9.828;2024-02-16T00:36:51;7.50;99.90
54409;DHT22;40315;48.620;9.828;2024-02-16T00:39:18;7.70;99.90
54409;DHT22;40315;48.620;9.828;2024-02-16T00:41:45;7.90;99.90
54409;DHT22;40315;48.620;9.828;2024-02-16T00:44:16;7.90;99.90
54409;DHT22;40315;48.620;9.828;2024-02-16T00:46:46;7.90;99.90
54409;DHT22;40315;48.620;9.828;2024-02-16T00:49:15;7.90;99.90
54409;DHT22;40315;48.620;9.828;2024-02-16T00:51:42;7.90;99.90
54409;DHT22;40315;48.620;9.828;2024-02-16T00:54:09;8.00;99.90
54409;DHT22;40315;48.620;9.828;2024-02-16T00:56:36;8.00;99.90
54409;DHT22;40315;48.620;9.828;2024-02-16T00:59:04;8.10;99.90
54409;DHT22;40315;48.620;9.828;2024-02-16T01:01:32;8.10;99.90
54409;DHT22;40315;48.620;9.828;2024-02-16T01:04:01;8.10;99.90
54409;DHT22;40315;48.620;9.828;2024-02-16T01:06:32;8.10;99.90
54409;DHT22;40315;48.620;9.828;2024-02-16T01:08:59;8.00;99.90
54409;DHT22;40315;48.620;9.828;2024-02-16T01:11:25;8.00;99.90
54409;DHT22;40315;48.620;9.828;2024-02-16T01:13:53;7.90;99.90
54409;DHT22;40315;48.620;9.828;2024-02-16T01:16:22;7.80;99.90
54409;DHT22;40315;48.620;9.828;2024-02-16T01:18:54;7.80;99.90
54409;DHT22;40315;48.620;9.828;2024-02-16T01:21:22;7.70;99.90
54409;DHT22;40315;48.620;9.828;2024-02-16T01:23:52;8.00;99.90
54409;DHT22;40315;48.620;9.828;2024-02-16T01:26:21;8.10;99.90
54409;DHT22;40315;48.620;9.828;2024-02-16T01:28:48;8.00;99.90
54409;DHT22;40315;48.620;9.828;2024-02-16T01:31:15;8.10;99.90
54409;DHT22;40315;48.620;9.828;2024-02-16T01:33:42;8.10;99.90
54409;DHT22;40315;48.620;9.828;2024-02-16T01:36:10;8.10;99.90
54409;DHT22;40315;48.620;9.828;2024-02-16T01:38:39;8.00;99.90
54409;DHT22;40315;48.620;9.828;2024-02-16T01:41:08;8.00;99.90
54409;DHT22;40315;48.620;9.828;2024-02-16T01:43:36;7.90;99.90
54409;DHT22;40315;48.620;9.828;2024-02-16T01:46:05;7.90;99.90
54409;DHT22;40315;48.620;9.828;2024-02-16T01:48:32;7.90;99.90
54409;DHT22;40315;48.620;9.828;2024-02-16T01:51:02;7.80;99.90
54409;DHT22;40315;48.620;9.828;2024-02-16T01:53:31;7.80;99.90
54409;DHT22;40315;48.620;9.828;2024-02-16T01:56:01;7.80;99.90
54409;DHT22;40315;48.620;9.828;2024-02-16T01:58:28;7.80;99.90
54409;DHT22;40315;48.620;9.828;2024-02-16T02:03:40;7.80;99.90
54409;DHT22;40315;48.620;9.828;2024-02-16T02:06:07;7.80;99.90
54409;DHT22;40315;48.620;9.828;2024-02-16T02:08:36;7.70;99.90
54409;DHT22;40315;48.620;9.828;2024-02-16T02:11:03;7.70;99.90
54409;DHT22;40315;48.620;9.828;2024-02-16T02:13:31;7.70;99.90
54409;DHT22;40315;48.620;9.828;2024-02-16T02:16:00;7.70;99.90
54409;DHT22;40315;48.620;9.828;2024-02-16T02:18:31;7.60;99.90
54409;DHT22;40315;48.620;9.828;2024-02-16T02:20:58;7.60;99.90
54409;DHT22;40315;48.620;9.828;2024-02-16T02:23:29;7.60;99.90
54409;DHT22;40315;48.620;9.828;2024-02-16T02:25:55;7.50;99.90
54409;DHT22;40315;48.620;9.828;2024-02-16T02:28:24;7.50;99.90
54409;DHT22;40315;48.620;9.828;2024-02-16T02:30:51;7.60;99.90
54409;DHT22;40315;48.620;9.828;2024-02-16T02:33:19;7.60;99.90
54409;DHT22;40315;48.620;9.828;2024-02-16T02:35:48;7.60;99.90
54409;DHT22;40315;48.620;9.828;2024-02-16T02:38:15;7.60;99.90
54409;DHT22;40315;48.620;9.828;2024-02-16T02:40:46;7.60;99.90
54409;DHT22;40315;48.620;9.828;2024-02-16T02:43:13;7.50;99.90
54409;DHT22;40315;48.620;9.828;2024-02-16T02:45:40;7.50;99.90
54409;DHT22;40315;48.620;9.828;2024-02-16T02:48:09;7.50;99.90
54409;DHT22;40315;48.620;9.828;2024-02-16T02:50:35;7.50;99.90
54409;DHT22;40315;48.620;9.828;2024-02-16T02:53:05;7.50;99.90
54409;DHT22;40315;48.620;9.828;2024-02-16T02:55:31;7.60;99.90
54409;DHT22;40315;48.620;9.828;2024-02-16T02:58:00;7.70;99.90
54409;DHT22;40315;48.620;9.828;2024-02-16T03:00:27;7.70;99.90
54409;DHT22;40315;48.620;9.828;2024-02-16T03:02:56;7.70;99.90
54409;DHT22;40315;48.620;9.828;2024-02-16T03:05:25;7.70;99.90
54409;DHT22;40315;48.620;9.828;2024-02-16T03:07:54;7.60;99.90
54409;DHT22;40315;48.620;9.828;2024-02-16T03:10:20;7.50;99.90
54409;DHT22;40315;48.620;9.828;2024-02-16T03:12:49;7.50;99.90
54409;DHT22;40315;48.620;9.828;2024-02-16T03:15:20;7.40;99.90
54409;DHT22;40315;48.620;9.828;2024-02-16T03:17:47;7.30;99.90
54409;DHT22;40315;48.620;9.828;2024-02-16T03:20:14;7.20;99.90
54409;DHT22;40315;48.620;9.828;2024-02-16T03:22:42;7.20;99.90
54409;DHT22;40315;48.620;9.828;2024-02-16T03:25:09;7.20;99.90
54409;DHT22;40315;48.620;9.828;2024-02-16T03:27:36;7.10;99.90
54409;DHT22;40315;48.620;9.828;2024-02-16T03:30:04;7.10;99.90
54409;DHT22;40315;48.620;9.828;2024-02-16T03:32:32;7.10;99.90
54409;DHT22;40315;48.620;9.828;2024-02-16T03:35:00;7.10;99.90
54409;DHT22;40315;48.620;9.828;2024-02-16T03:37:26;7.00;99.90
54409;DHT22;40315;48.620;9.828;2024-02-16T03:39:53;7.10;99.90
54409;DHT22;40315;48.620;9.828;2024-02-16T03:42:20;7.10;99.90
54409;DHT22;40315;48.620;9.828;2024-02-16T03:44:50;7.10;99.90
54409;DHT22;40315;48.620;9.828;2024-02-16T03:47:19;7.20;99.90
54409;DHT22;40315;48.620;9.828;2024-02-16T03:49:47;7.30;99.90
54409;DHT22;40315;48.620;9.828;2024-02-16T03:52:14;7.30;99.90
54409;DHT22;40315;48.620;9.828;2024-02-16T03:54:43;7.20;99.90
54409;DHT22;40315;48.620;9.828;2024-02-16T03:57:13;7.30;99.90
54409;DHT22;40315;48.620;9.828;2024-02-16T03:59:42;7.40;99.90
54409;DHT22;40315;48.620;9.828;2024-02-16T04:02:12;7.40;99.90
54409;DHT22;40315;48.620;9.828;2024-02-16T04:04:40;7.40;99.90
54409;DHT22;40315;48.620;9.828;2024-02-16T04:07:08;7.40;99.90
54409;DHT22;40315;48.620;9.828;2024-02-16T04:09:35;7.50;99.90
54409;DHT22;40315;48.620;9.828;2024-02-16T04:12:02;7.60;99.90
54409;DHT22;40315;48.620;9.828;2024-02-16T04:14:30;7.60;99.90
54409;DHT22;40315;48.620;9.828;2024-02-16T04:16:58;7.70;99.90
54409;DHT22;40315;48.620;9.828;2024-02-16T04:19:25;7.80;99.90
54409;DHT22;40315;48.620;9.828;2024-02-16T04:21:52;7.80;99.90
54409;DHT22;40315;48.620;9.828;2024-02-16T04:24:23;7.70;99.90
54409;DHT22;40315;48.620;9.828;2024-02-16T04:26:50;7.70;99.90
54409;DHT22;40315;48.620;9.828;2024-02-16T04:29:17;7.80;99.90
54409;DHT22;40315;48.620;9.828;2024-02-16T04:31:44;7.80;99.90
54409;DHT22;40315;48.620;9.828;2024-02-16T04:34:13;7.80;99.90
54409;DHT22;40315;48.620;9.828;2024-02-16T04:36:40;7.70;99.90
54409;DHT22;40315;48.620;9.828;2024-02-16T04:39:07;7.70;99.90
54409;DHT22;40315;48.620;9.828;2024-02-16T04:41:39;7.70;99.90
54409;DHT22;40315;48.620;9.828;2024-02-16T04:44:08;7.80;99.90
54409;DHT22;40315;48.620;9.828;2024-02-16T04:46:35;7.80;99.90
54409;DHT22;40315;48.620;9.828;2024-02-16T04:49:02;7.80;99.90
54409;DHT22;40315;48.620;9.828;2024-02-16T04:51:28;7.80;99.90
54409;DHT22;40315;48.620;9.828;2024-02-16T04:53:58;7.80;99.90
54409;DHT22;40315;48.620;9.828;2024-02-16T04:56:25;7.80;99.90
54409;DHT22;40315;48.620;9.828;2024-02-16T04:58:53;7.80;99.90
54409;DHT22;40315;48.620;9.828;2024-02-16T05:01:20;7.80;99.90
54409;DHT22;40315;48.620;9.828;2024-02-16T05:03:47;7.70;99.90
54409;DHT22;40315;48.620;9.828;2024-02-16T05:06:14;7.70;99.90
54409;DHT22;40315;48.620;9.828;2024-02-16T05:08:43;7.70;99.90
54409;DHT22;40315;48.620;9.828;2024-02-16T05:11:10;7.70;99.90
54409;DHT22;40315;48.620;9.828;2024-02-16T05:13:39;7.80;99.90
54409;DHT22;40315;48.620;9.828;2024-02-16T05:16:11;7.80;99.90
54409;DHT22;40315;48.620;9.828;2024-02-16T05:18:41;8.20;99.90
54409;DHT22;40315;48.620;9.828;2024-02-16T05:21:10;7.90;99.90
54409;DHT22;40315;48.620;9.828;2024-02-16T05:23:36;7.90;99.90
54409;DHT22;40315;48.620;9.828;2024-02-16T05:26:04;7.90;99.90
54409;DHT22;40315;48.620;9.828;2024-02-16T05:28:30;7.90;99.90
54409;DHT22;40315;48.620;9.828;2024-02-16T05:30:58;7.90;99.90
54409;DHT22;40315;48.620;9.828;2024-02-16T05:33:31;7.90;99.90
54409;DHT22;40315;48.620;9.828;2024-02-16T05:35:58;8.10;99.90
54409;DHT22;40315;48.620;9.828;2024-02-16T05:38:25;7.90;99.90
54409;DHT22;40315;48.620;9.828;2024-02-16T05:41:00;8.00;99.90
54409;DHT22;40315;48.620;9.828;2024-02-16T05:43:27;7.90;99.90
54409;DHT22;40315;48.620;9.828;2024-02-16T05:45:54;7.80;99.90
54409;DHT22;40315;48.620;9.828;2024-02-16T05:48:23;7.80;99.90
54409;DHT22;40315;48.620;9.828;2024-02-16T05:50:57;7.80;99.90
54409;DHT22;40315;48.620;9.828;2024-02-16T05:53:25;7.80;99.90
54409;DHT22;40315;48.620;9.828;2024-02-16T05:55:55;7.80;99.90
54409;DHT22;40315;48.620;9.828;2024-02-16T05:58:22;7.80;99.90
54409;DHT22;40315;48.620;9.828;2024-02-16T06:00:49;7.80;99.90
54409;DHT22;40315;48.620;9.828;2024-02-16T06:03:19;7.90;99.90
54409;DHT22;40315;48.620;9.828;2024-02-16T06:05:48;7.80;99.90
54409;DHT22;40315;48.620;9.828;2024-02-16T06:08:16;7.70;99.90
54409;DHT22;40315;48.620;9.828;2024-02-16T06:10:46;7.70;99.90
54409;DHT22;40315;48.620;9.828;2024-02-16T06:13:17;7.70;99.90
54409;DHT22;40315;48.620;9.828;2024-02-16T06:15:45;7.70;99.90
54409;DHT22;40315;48.620;9.828;2024-02-16T06:18:12;7.60;99.90
54409;DHT22;40315;48.620;9.828;2024-02-16T06:20:39;7.60;99.90
54409;DHT22;40315;48.620;9.828;2024-02-16T06:23:09;7.60;99.90
54409;DHT22;40315;48.620;9.828;2024-02-16T06:25:37;7.50;99.90
54409;DHT22;40315;48.620;9.828;2024-02-16T06:28:05;7.50;99.90
54409;DHT22;40315;48.620;9.828;2024-02-16T06:30:32;7.50;99.90
54409;DHT22;40315;48.620;9.828;2024-02-16T06:32:59;7.50;99.90
54409;DHT22;40315;48.620;9.828;2024-02-16T06:35:29;7.40;99.90
54409;DHT22;40315;48.620;9.828;2024-02-16T06:37:59;8.00;99.90
54409;DHT22;40315;48.620;9.828;2024-02-16T06:40:25;7.40;99.90
54409;DHT22;40315;48.620;9.828;2024-02-16T06:42:54;7.40;99.90
54409;DHT22;40315;48.620;9.828;2024-02-16T06:45:21;7.40;99.90
54409;DHT22;40315;48.620;9.828;2024-02-16T06:47:51;7.50;99.90
54409;DHT22;40315;48.620;9.828;2024-02-16T06:50:17;7.50;99.90
54409;DHT22;40315;48.620;9.828;2024-02-16T06:52:44;7.50;99.90
54409;DHT22;40315;48.620;9.828;2024-02-16T06:55:11;7.50;99.90
54409;DHT22;40315;48.620;9.828;2024-02-16T06:57:38;7.50;99.90
54409;DHT22;40315;48.620;9.828;2024-02-16T07:00:08;7.50;99.90
54409;DHT22;40315;48.620;9.828;2024-02-16T07:02:35;9.10;99.90
54409;DHT22;40315;48.620;9.828;2024-02-16T07:05:03;7.50;99.90
54409;DHT22;40315;48.620;9.828;2024-02-16T07:07:30;7.50;99.90
54409;DHT22;40315;48.620;9.828;2024-02-16T07:10:00;7.50;99.90
54409;DHT22;40315;48.620;9.828;2024-02-16T07:12:29;7.50;99.90
54409;DHT22;40315;48.620;9.828;2024-02-16T07:14:56;7.50;99.90
54409;DHT22;40315;48.620;9.828;2024-02-16T07:17:24;7.60;99.90
54409;DHT22;40315;48.620;9.828;2024-02-16T07:19:51;7.60;99.90
54409;DHT22;40315;48.620;9.828;2024-02-16T07:22:20;7.60;99.90
54409;DHT22;40315;48.620;9.828;2024-02-16T07:24:47;7.70;99.90
54409;DHT22;40315;48.620;9.828;2024-02-16T07:29:43;7.70;99.90
54409;DHT22;40315;48.620;9.828;2024-02-16T07:32:10;7.80;99.90
54409;DHT22;40315;48.620;9.828;2024-02-16T07:34:45;7.80;99.90
54409;DHT22;40315;48.620;9.828;2024-02-16T07:37:13;7.80;99.90
54409;DHT22;40315;48.620;9.828;2024-02-16T07:39:41;7.90;99.90
54409;DHT22;40315;48.620;9.828;2024-02-16T07:42:08;8.00;99.90
54409;DHT22;40315;48.620;9.828;2024-02-16T07:44:35;8.00;99.90
54409;DHT22;40315;48.620;9.828;2024-02-16T07:47:02;8.00;99.90
54409;DHT22;40315;48.620;9.828;2024-02-16T07:49:29;8.10;99.90
54409;DHT22;40315;48.620;9.828;2024-02-16T07:51:58;8.10;99.90
54409;DHT22;40315;48.620;9.828;2024-02-16T07:54:25;8.20;99.90
54409;DHT22;40315;48.620;9.828;2024-02-16T07:56:51;8.10;99.90
54409;DHT22;40315;48.620;9.828;2024-02-16T08:01:49;8.20;99.90
54409;DHT22;40315;48.620;9.828;2024-02-16T08:04:17;8.30;99.90
54409;DHT22;40315;48.620;9.828;2024-02-16T08:06:44;8.40;99.90
54409;DHT22;40315;48.620;9.828;2024-02-16T08:09:14;8.50;99.90
54409;DHT22;40315;48.620;9.828;2024-02-16T08:11:41;8.60;99.90
54409;DHT22;40315;48.620;9.828;2024-02-16T08:14:09;8.80;99.90
54409;DHT22;40315;48.620;9.828;2024-02-16T08:16:36;8.80;99.90
54409;DHT22;40315;48.620;9.828;2024-02-16T08:19:05;9.00;99.90
54409;DHT22;40315;48.620;9.828;2024-02-16T08:21:32;7.50;99.90
54409;DHT22;40315;48.620;9.828;2024-02-16T08:24:01;9.30;99.90
54409;DHT22;40315;48.620;9.828;2024-02-16T08:26:30;9.40;99.90
54409;DHT22;40315;48.620;9.828;2024-02-16T08:28:57;9.60;99.90
54409;DHT22;40315;48.620;9.828;2024-02-16T08:31:25;9.90;99.90
54409;DHT22;40315;48.620;9.828;2024-02-16T08:33:52;10.00;99.90
54409;DHT22;40315;48.620;9.828;2024-02-16T08:36:19;10.20;99.90
54409;DHT22;40315;48.620;9.828;2024-02-16T08:38:53;10.30;99.90
54409;DHT22;40315;48.620;9.828;2024-02-16T08:41:22;10.30;99.90
54409;DHT22;40315;48.620;9.828;2024-02-16T08:43:51;10.40;99.90
54409;DHT22;40315;48.620;9.828;2024-02-16T08:46:18;10.50;99.90
54409;DHT22;40315;48.620;9.828;2024-02-16T08:48:45;10.60;99.90
54409;DHT22;40315;48.620;9.828;2024-02-16T08:51:15;12.70;99.90
54409;DHT22;40315;48.620;9.828;2024-02-16T08:53:42;10.70;99.90
54409;DHT22;40315;48.620;9.828;2024-02-16T08:56:11;10.80;99.90
54409;DHT22;40315;48.620;9.828;2024-02-16T08:58:38;10.90;99.90
54409;DHT22;40315;48.620;9.828;2024-02-16T09:01:07;10.90;99.90
54409;DHT22;40315;48.620;9.828;2024-02-16T09:03:33;10.90;99.90
54409;DHT22;40315;48.620;9.828;2024-02-16T09:06:04;11.00;99.90
54409;DHT22;40315;48.620;9.828;2024-02-16T09:11:01;11.10;99.90
54409;DHT22;40315;48.620;9.828;2024-02-16T09:13:31;11.10;99.90
54409;DHT22;40315;48.620;9.828;2024-02-16T09:18:30;11.20;99.90
54409;DHT22;40315;48.620;9.828;2024-02-16T09:20:58;11.30;99.90
54409;DHT22;40315;48.620;9.828;2024-02-16T09:23:28;11.30;99.90
54409;DHT22;40315;48.620;9.828;2024-02-16T09:25:54;11.30;99.90
54409;DHT22;40315;48.620;9.828;2024-02-16T09:28:21;11.30;99.90
54409;DHT22;40315;48.620;9.828;2024-02-16T09:30:51;11.40;99.90
54409;DHT22;40315;48.620;9.828;2024-02-16T09:33:20;11.60;99.90
54409;DHT22;40315;48.620;9.828;2024-02-16T09:35:48;11.70;99.90
54409;DHT22;40315;48.620;9.828;2024-02-16T09:38:15;11.80;99.90
54409;DHT22;40315;48.620;9.828;2024-02-16T09:40:43;11.90;99.90
54409;DHT22;40315;48.620;9.828;2024-02-16T09:43:23;12.10;99.90
54409;DHT22;40315;48.620;9.828;2024-02-16T09:45:53;12.10;99.90
54409;DHT22;40315;48.620;9.828;2024-02-16T09:48:21;12.20;99.90
54409;DHT22;40315;48.620;9.828;2024-02-16T09:50:50;12.30;99.90
54409;DHT22;40315;48.620;9.828;2024-02-16T09:53:19;12.50;99.90
54409;DHT22;40315;48.620;9.828;2024-02-16T09:55:49;12.60;99.90
54409;DHT22;40315;48.620;9.828;2024-02-16T09:58:19;12.70;99.90
54409;DHT22;40315;48.620;9.828;2024-02-16T10:00:50;12.80;99.90
54409;DHT22;40315;48.620;9.828;2024-02-16T10:03:26;12.90;99.90
54409;DHT22;40315;48.620;9.828;2024-02-16T10:06:05;12.90;99.90
54409;DHT22;40315;48.620;9.828;2024-02-16T10:08:33;13.00;99.90
54409;DHT22;40315;48.620;9.828;2024-02-16T10:11:01;12.30;99.90
54409;DHT22;40315;48.620;9.828;2024-02-16T10:13:30;13.20;99.90
54409;DHT22;40315;48.620;9.828;2024-02-16T10:18:35;13.60;99.90
54409;DHT22;40315;48.620;9.828;2024-02-16T10:21:02;13.90;99.90
54409;DHT22;40315;48.620;9.828;2024-02-16T10:23:31;14.10;99.90
54409;DHT22;40315;48.620;9.828;2024-02-16T10:25:58;14.20;99.90
54409;DHT22;40315;48.620;9.828;2024-02-16T10:28:28;14.50;99.90
54409;DHT22;40315;48.620;9.828;2024-02-16T10:30:58;14.50;99.90
54409;DHT22;40315;48.620;9.828;2024-02-16T10:33:27;14.80;99.90
54409;DHT22;40315;48.620;9.828;2024-02-16T10:35:56;14.90;99.90
54409;DHT22;40315;48.620;9.828;2024-02-16T10:40:56;11.50;99.90
54409;DHT22;40315;48.620;9.828;2024-02-16T10:43:25;15.80;99.90
54409;DHT22;40315;48.620;9.828;2024-02-16T10:45:54;16.00;99.90
54409;DHT22;40315;48.620;9.828;2024-02-16T10:48:23;16.10;99.90
54409;DHT22;40315;48.620;9.828;2024-02-16T10:53:23;16.50;99.90
54409;DHT22;40315;48.620;9.828;2024-02-16T10:55:51;16.40;99.90
54409;DHT22;40315;48.620;9.828;2024-02-16T10:58:19;16.30;99.90
54409;DHT22;40315;48.620;9.828;2024-02-16T11:00:51;16.30;99.90
54409;DHT22;40315;48.620;9.828;2024-02-16T11:03:22;16.00;99.90
54409;DHT22;40315;48.620;9.828;2024-02-16T11:05:50;16.00;99.90
54409;DHT22;40315;48.620;9.828;2024-02-16T11:08:20;16.20;99.90
54409;DHT22;40315;48.620;9.828;2024-02-16T11:10:58;16.10;99.90
54409;DHT22;40315;48.620;9.828;2024-02-16T11:13:32;16.20;99.90
54409;DHT22;40315;48.620;9.828;2024-02-16T11:15:59;16.30;99.90
54409;DHT22;40315;48.620;9.828;2024-02-16T11:18:27;16.40;99.90
54409;DHT22;40315;48.620;9.828;2024-02-16T11:25:59;16.20;99.90
54409;DHT22;40315;48.620;9.828;2024-02-16T11:30:58;16.10;99.90
54409;DHT22;40315;48.620;9.828;2024-02-16T11:33:28;16.00;99.90
54409;DHT22;40315;48.620;9.828;2024-02-16T11:35:57;16.10;99.90
54409;DHT22;40315;48.620;9.828;2024-02-16T11:38:30;16.00;99.90
54409;DHT22;40315;48.620;9.828;2024-02-16T11:41:00;16.10;99.90
54409;DHT22;40315;48.620;9.828;2024-02-16T11:43:28;16.00;99.90
54409;DHT22;40315;48.620;9.828;2024-02-16T11:45:56;16.10;99.90
54409;DHT22;40315;48.620;9.828;2024-02-16T11:48:24;16.10;99.90
54409;DHT22;40315;48.620;9.828;2024-02-16T11:50:59;16.10;99.90
54409;DHT22;40315;48.620;9.828;2024-02-16T11:53:27;16.10;99.90
54409;DHT22;40315;48.620;9.828;2024-02-16T11:55:54;16.20;99.90
54409;DHT22;40315;48.620;9.828;2024-02-16T11:58:22;16.30;99.90
54409;DHT22;40315;48.620;9.828;2024-02-16T12:00:51;16.30;99.90
54409;DHT22;40315;48.620;9.828;2024-02-16T12:03:19;16.30;99.90
54409;DHT22;40315;48.620;9.828;2024-02-16T12:05:51;16.50;99.90
54409;DHT22;40315;48.620;9.828;2024-02-16T12:08:31;16.50;99.90
54409;DHT22;40315;48.620;9.828;2024-02-16T12:10:58;16.60;99.90
54409;DHT22;40315;48.620;9.828;2024-02-16T12:13:26;16.70;99.90
54409;DHT22;40315;48.620;9.828;2024-02-16T12:15:55;16.90;99.90
54409;DHT22;40315;48.620;9.828;2024-02-16T12:18:25;17.10;99.90
54409;DHT22;40315;48.620;9.828;2024-02-16T12:20:59;17.20;99.90
54409;DHT22;40315;48.620;9.828;2024-02-16T12:23:27;17.30;99.90
54409;DHT22;40315;48.620;9.828;2024-02-16T12:25:56;17.40;99.90
54409;DHT22;40315;48.620;9.828;2024-02-16T12:28:25;17.30;99.90
54409;DHT22;40315;48.620;9.828;2024-02-16T12:30:55;17.20;99.90
54409;DHT22;40315;48.620;9.828;2024-02-16T12:33:24;17.00;99.90
54409;DHT22;40315;48.620;9.828;2024-02-16T12:35:51;16.90;99.90
54409;DHT22;40315;48.620;9.828;2024-02-16T12:38:22;16.90;99.90
54409;DHT22;40315;48.620;9.828;2024-02-16T12:40:49;16.90;99.90
54409;DHT22;40315;48.620;9.828;2024-02-16T12:45:45;16.80;99.90
54409;DHT22;40315;48.620;9.828;2024-02-16T12:50:41;17.10;99.90
54409;DHT22;40315;48.620;9.828;2024-02-16T12:53:08;17.20;99.90
54409;DHT22;40315;48.620;9.828;2024-02-16T13:00:40;17.00;99.90
54409;DHT22;40315;48.620;9.828;2024-02-16T13:10:33;16.70;99.90
54409;DHT22;40315;48.620;9.828;2024-02-16T13:15:28;16.50;99.90
54409;DHT22;40315;48.620;9.828;2024-02-16T13:22:53;16.50;99.90
54409;DHT22;40315;48.620;9.828;2024-02-16T13:27:48;16.60;99.90
54409;DHT22;40315;48.620;9.828;2024-02-16T13:32:42;17.60;99.90
54409;DHT22;40315;48.620;9.828;2024-02-16T13:35:10;16.40;99.90
54409;DHT22;40315;48.620;9.828;2024-02-16T13:37:39;16.40;99.90
54409;DHT22;40315;48.620;9.828;2024-02-16T13:42:40;16.30;99.90
54409;DHT22;40315;48.620;9.828;2024-02-16T13:47:35;16.20;99.90
54409;DHT22;40315;48.620;9.828;2024-02-16T13:50:04;16.10;99.90
54409;DHT22;40315;48.620;9.828;2024-02-16T13:52:33;16.10;99.90
54409;DHT22;40315;48.620;9.828;2024-02-16T13:55:01;16.10;99.90
54409;DHT22;40315;48.620;9.828;2024-02-16T13:57:29;16.00;99.90
54409;DHT22;40315;48.620;9.828;2024-02-16T13:59:58;16.10;99.90
54409;DHT22;40315;48.620;9.828;2024-02-16T14:02:25;16.00;99.90
54409;DHT22;40315;48.620;9.828;2024-02-16T14:04:52;16.00;99.90
54409;DHT22;40315;48.620;9.828;2024-02-16T14:07:22;16.00;99.90
54409;DHT22;40315;48.620;9.828;2024-02-16T14:09:51;16.00;99.90
54409;DHT22;40315;48.620;9.828;2024-02-16T14:12:18;15.90;99.90
54409;DHT22;40315;48.620;9.828;2024-02-16T14:14:50;15.90;99.90
54409;DHT22;40315;48.620;9.828;2024-02-16T14:17:17;16.00;99.90
54409;DHT22;40315;48.620;9.828;2024-02-16T14:19:44;16.00;99.90
54409;DHT22;40315;48.620;9.828;2024-02-16T14:22:11;16.00;99.90
54409;DHT22;40315;48.620;9.828;2024-02-16T14:24:38;16.00;99.90
54409;DHT22;40315;48.620;9.828;2024-02-16T14:27:05;16.00;99.90
54409;DHT22;40315;48.620;9.828;2024-02-16T14:29:34;16.10;99.90
54409;DHT22;40315;48.620;9.828;2024-02-16T14:32:05;16.00;99.90
54409;DHT22;40315;48.620;9.828;2024-02-16T14:34:32;15.90;99.90
54409;DHT22;40315;48.620;9.828;2024-02-16T14:37:00;15.90;99.90
54409;DHT22;40315;48.620;9.828;2024-02-16T14:39:28;16.00;99.90
54409;DHT22;40315;48.620;9.828;2024-02-16T14:41:55;15.90;99.90
54409;DHT22;40315;48.620;9.828;2024-02-16T14:44:22;15.90;99.90
54409;DHT22;40315;48.620;9.828;2024-02-16T14:46:49;15.90;99.90
54409;DHT22;40315;48.620;9.828;2024-02-16T14:49:17;15.80;99.90
54409;DHT22;40315;48.620;9.828;2024-02-16T14:51:46;15.80;99.90
54409;DHT22;40315;48.620;9.828;2024-02-16T14:54:14;15.80;99.90
54409;DHT22;40315;48.620;9.828;2024-02-16T14:56:43;15.80;99.90
54409;DHT22;40315;48.620;9.828;2024-02-16T14:59:10;15.70;99.90
54409;DHT22;40315;48.620;9.828;2024-02-16T15:01:40;15.70;99.90
54409;DHT22;40315;48.620;9.828;2024-02-16T15:04:07;15.70;99.90
54409;DHT22;40315;48.620;9.828;2024-02-16T15:06:35;15.60;99.90
54409;DHT22;40315;48.620;9.828;2024-02-16T15:09:02;15.60;99.90
54409;DHT22;40315;48.620;9.828;2024-02-16T15:11:30;15.60;99.90
54409;DHT22;40315;48.620;9.828;2024-02-16T15:13:57;15.60;99.90
54409;DHT22;40315;48.620;9.828;2024-02-16T15:16:27;15.50;99.90
54409;DHT22;40315;48.620;9.828;2024-02-16T15:18:53;15.50;99.90
54409;DHT22;40315;48.620;9.828;2024-02-16T15:21:20;15.50;99.90
54409;DHT22;40315;48.620;9.828;2024-02-16T15:23:49;15.50;99.90
54409;DHT22;40315;48.620;9.828;2024-02-16T15:26:16;15.50;99.90
54409;DHT22;40315;48.620;9.828;2024-02-16T15:28:45;15.40;99.90
54409;DHT22;40315;48.620;9.828;2024-02-16T15:31:12;15.70;99.90
54409;DHT22;40315;48.620;9.828;2024-02-16T15:33:39;15.40;99.90
54409;DHT22;40315;48.620;9.828;2024-02-16T15:36:08;15.40;99.90
54409;DHT22;40315;48.620;9.828;2024-02-16T15:38:35;15.40;99.90
54409;DHT22;40315;48.620;9.828;2024-02-16T15:41:04;15.30;99.90
54409;DHT22;40315;48.620;9.828;2024-02-16T15:43:31;15.20;99.90
54409;DHT22;40315;48.620;9.828;2024-02-16T15:45:58;15.30;99.90
54409;DHT22;40315;48.620;9.828;2024-02-16T15:48:26;15.20;99.90
54409;DHT22;40315;48.620;9.828;2024-02-16T15:50:53;14.20;99.90
54409;DHT22;40315;48.620;9.828;2024-02-16T15:53:20;15.20;99.90
54409;DHT22;40315;48.620;9.828;2024-02-16T15:55:47;15.20;99.90
54409;DHT22;40315;48.620;9.828;2024-02-16T15:58:18;15.10;99.90
54409;DHT22;40315;48.620;9.828;2024-02-16T16:00:45;15.10;99.90
54409;DHT22;40315;48.620;9.828;2024-02-16T16:03:12;14.90;99.90
54409;DHT22;40315;48.620;9.828;2024-02-16T16:05:39;15.00;99.90
54409;DHT22;40315;48.620;9.828;2024-02-16T16:08:06;15.00;99.90
54409;DHT22;40315;48.620;9.828;2024-02-16T16:10:33;14.90;99.90
54409;DHT22;40315;48.620;9.828;2024-02-16T16:13:01;14.80;99.90
54409;DHT22;40315;48.620;9.828;2024-02-16T16:15:33;14.80;99.90
54409;DHT22;40315;48.620;9.828;2024-02-16T16:18:00;14.80;99.90
54409;DHT22;40315;48.620;9.828;2024-02-16T16:20:27;14.80;99.90
54409;DHT22;40315;48.620;9.828;2024-02-16T16:22:54;14.70;99.90
54409;DHT22;40315;48.620;9.828;2024-02-16T16:25:21;14.70;99.90
54409;DHT22;40315;48.620;9.828;2024-02-16T16:27:51;14.70;99.90
54409;DHT22;40315;48.620;9.828;2024-02-16T16:30:18;14.60;99.90
54409;DHT22;40315;48.620;9.828;2024-02-16T16:32:47;14.60;99.90
54409;DHT22;40315;48.620;9.828;2024-02-16T16:35:14;14.60;99.90
54409;DHT22;40315;48.620;9.828;2024-02-16T16:37:44;14.60;99.90
54409;DHT22;40315;48.620;9.828;2024-02-16T16:40:11;14.70;99.90
54409;DHT22;40315;48.620;9.828;2024-02-16T16:42:38;14.70;99.90
54409;DHT22;40315;48.620;9.828;2024-02-16T16:45:06;14.60;99.90
54409;DHT22;40315;48.620;9.828;2024-02-16T16:47:33;14.60;99.90
54409;DHT22;40315;48.620;9.828;2024-02-16T16:50:02;14.50;99.90